createdAt,value
2023-02-17T00:00:25.890Z,96.82
2023-02-17T00:00:57.770Z,96.96
2023-02-17T00:01:32.806Z,97.02
2023-02-17T00:02:05.538Z,97.04
2023-02-17T00:02:37.836Z,96.89
2023-02-17T00:03:10.221Z,97.05
2023-02-17T00:03:41.917Z,96.97
2023-02-17T00:04:13.625Z,97.10
2023-02-17T00:04:45.233Z,97.20
2023-02-17T00:05:16.896Z,97.08
2023-02-17T00:05:50.928Z,97.05
2023-02-17T00:06:25.685Z,97.05
2023-02-17T00:06:57.909Z,96.94
2023-02-17T00:07:32.235Z,96.97
2023-02-17T00:08:03.832Z,96.86
2023-02-17T00:08:35.596Z,96.79
2023-02-17T00:09:07.711Z,96.72
2023-02-17T00:09:39.550Z,96.80
2023-02-17T00:10:11.284Z,96.74
2023-02-17T00:10:42.916Z,96.92
2023-02-17T00:11:15.076Z,97.11
2023-02-17T00:11:46.860Z,97.06
2023-02-17T00:12:18.445Z,97.06
2023-02-17T00:12:50.040Z,97.03
2023-02-17T00:13:21.715Z,97.10
2023-02-17T00:13:56.130Z,96.92
2023-02-17T00:14:28.065Z,96.75
2023-02-17T00:14:59.718Z,96.97
2023-02-17T00:15:31.652Z,96.95
2023-02-17T00:16:08.762Z,96.99
2023-02-17T00:16:40.935Z,96.87
2023-02-17T00:17:12.735Z,96.73
2023-02-17T00:17:44.372Z,96.75
2023-02-17T00:18:15.990Z,96.90
2023-02-17T00:18:52.163Z,96.81
2023-02-17T00:19:25.071Z,96.41
2023-02-17T00:19:56.951Z,96.32
2023-02-17T00:20:29.288Z,96.73
2023-02-17T00:21:01.039Z,96.67
2023-02-17T00:21:32.771Z,96.64
2023-02-17T00:22:05.136Z,96.77
2023-02-17T00:22:38.146Z,96.67
2023-02-17T00:23:09.853Z,96.59
2023-02-17T00:23:42.031Z,96.55
2023-02-17T00:24:13.755Z,96.78
2023-02-17T00:24:45.495Z,96.87
2023-02-17T00:25:17.175Z,96.85
2023-02-17T00:25:48.930Z,96.99
2023-02-17T00:26:21.337Z,97.00
2023-02-17T00:26:53.046Z,97.11
2023-02-17T00:27:24.749Z,97.19
2023-02-17T00:27:56.350Z,97.03
2023-02-17T00:28:27.934Z,97.20
2023-02-17T00:28:59.572Z,97.16
2023-02-17T00:29:31.673Z,97.03
2023-02-17T00:30:04.261Z,96.70
2023-02-17T00:30:38.613Z,97.13
2023-02-17T00:31:14.468Z,97.09
2023-02-17T00:31:46.944Z,97.29
2023-02-17T00:32:18.634Z,96.97
2023-02-17T00:32:50.200Z,96.81
2023-02-17T00:33:21.764Z,96.85
2023-02-17T00:33:55.263Z,96.89
2023-02-17T00:34:28.383Z,97.05
2023-02-17T00:34:59.971Z,97.17
2023-02-17T00:35:31.576Z,97.33
2023-02-17T00:36:06.378Z,97.47
2023-02-17T00:36:38.640Z,97.47
2023-02-17T00:37:10.275Z,97.52
2023-02-17T00:37:45.571Z,97.52
2023-02-17T00:38:17.215Z,97.54
2023-02-17T00:38:49.339Z,97.34
2023-02-17T00:39:21.226Z,96.93
2023-02-17T00:39:52.959Z,96.86
2023-02-17T00:40:24.564Z,96.82
2023-02-17T00:40:56.332Z,96.73
2023-02-17T00:41:28.967Z,96.65
2023-02-17T00:42:01.003Z,96.60
2023-02-17T00:42:32.674Z,96.69
2023-02-17T00:43:04.677Z,96.53
2023-02-17T00:43:36.281Z,96.60
2023-02-17T00:44:08.221Z,96.48
2023-02-17T00:44:39.987Z,96.51
2023-02-17T00:45:11.643Z,96.33
2023-02-17T00:45:43.271Z,96.35
2023-02-17T00:46:15.243Z,96.22
2023-02-17T00:46:47.274Z,96.47
2023-02-17T00:47:18.882Z,96.81
2023-02-17T00:47:50.494Z,96.86
2023-02-17T00:48:22.785Z,96.65
2023-02-17T00:48:54.896Z,96.41
2023-02-17T00:49:27.249Z,96.27
2023-02-17T00:49:59.013Z,96.36
2023-02-17T00:50:30.816Z,96.38
2023-02-17T00:51:02.541Z,96.40
2023-02-17T00:51:34.127Z,96.49
2023-02-17T00:52:06.077Z,96.74
2023-02-17T00:52:37.768Z,96.96
2023-02-17T00:53:09.445Z,97.14
2023-02-17T00:53:41.862Z,96.83
2023-02-17T00:54:14.650Z,96.72
2023-02-17T00:54:46.459Z,96.65
2023-02-17T00:55:18.199Z,96.24
2023-02-17T00:55:50.446Z,96.27
2023-02-17T00:56:22.150Z,96.36
2023-02-17T00:56:54.088Z,96.44
2023-02-17T00:57:26.409Z,96.64
2023-02-17T00:57:58.150Z,96.71
2023-02-17T00:58:29.833Z,96.93
2023-02-17T00:59:01.443Z,97.27
2023-02-17T00:59:33.117Z,97.61
2023-02-17T01:00:06.006Z,97.69
2023-02-17T01:00:37.824Z,97.66
2023-02-17T01:01:11.052Z,97.58
2023-02-17T01:01:42.848Z,97.47
2023-02-17T01:02:14.540Z,97.29
2023-02-17T01:02:46.169Z,96.91
2023-02-17T01:03:18.982Z,96.76
2023-02-17T01:03:50.560Z,96.88
2023-02-17T01:04:22.172Z,97.15
2023-02-17T01:04:54.218Z,97.14
2023-02-17T01:05:25.954Z,96.74
2023-02-17T01:05:58.111Z,96.96
2023-02-17T01:06:33.609Z,96.73
2023-02-17T01:07:05.373Z,96.61
2023-02-17T01:07:37.714Z,96.91
2023-02-17T01:08:09.780Z,97.13
2023-02-17T01:08:41.372Z,97.00
2023-02-17T01:09:14.818Z,96.98
2023-02-17T01:09:46.424Z,96.89
2023-02-17T01:10:18.244Z,96.72
2023-02-17T01:10:50.989Z,96.63
2023-02-17T01:11:25.499Z,96.99
2023-02-17T01:11:57.271Z,97.00
2023-02-17T01:12:28.926Z,96.87
2023-02-17T01:13:00.544Z,97.03
2023-02-17T01:13:32.388Z,97.03
2023-02-17T01:14:06.455Z,96.78
2023-02-17T01:14:38.177Z,96.73
2023-02-17T01:15:09.948Z,96.73
2023-02-17T01:15:44.300Z,96.34
2023-02-17T01:16:23.385Z,96.18
2023-02-17T01:16:55.017Z,96.18
2023-02-17T01:17:26.898Z,95.99
2023-02-17T01:17:58.900Z,95.94
2023-02-17T01:18:30.490Z,95.77
2023-02-17T01:19:03.823Z,95.90
2023-02-17T01:19:35.489Z,96.03
2023-02-17T01:20:07.843Z,95.94
2023-02-17T01:20:40.551Z,95.87
2023-02-17T01:21:26.351Z,95.81
2023-02-17T01:21:58.039Z,95.84
2023-02-17T01:22:29.944Z,95.67
2023-02-17T01:23:01.629Z,95.65
2023-02-17T01:23:33.246Z,95.32
2023-02-17T01:24:07.622Z,95.38
2023-02-17T01:24:39.951Z,95.57
2023-02-17T01:25:11.710Z,95.63
2023-02-17T01:25:46.657Z,95.79
2023-02-17T01:26:20.922Z,95.75
2023-02-17T01:26:52.684Z,96.27
2023-02-17T01:27:24.304Z,96.52
2023-02-17T01:27:56.274Z,96.60
2023-02-17T01:28:27.879Z,96.70
2023-02-17T01:29:00.107Z,96.69
2023-02-17T01:29:31.868Z,96.71
2023-02-17T01:30:05.301Z,96.93
2023-02-17T01:30:37.047Z,96.99
2023-02-17T01:31:09.347Z,97.09
2023-02-17T01:31:41.400Z,97.10
2023-02-17T01:32:13.096Z,96.98
2023-02-17T01:32:44.834Z,97.02
2023-02-17T01:33:16.523Z,97.09
2023-02-17T01:33:48.255Z,97.02
2023-02-17T01:34:20.046Z,97.07
2023-02-17T01:34:51.723Z,97.21
2023-02-17T01:35:23.376Z,97.03
2023-02-17T01:35:55.054Z,96.93
2023-02-17T01:36:27.670Z,96.77
2023-02-17T01:36:59.316Z,96.66
2023-02-17T01:37:33.673Z,96.89
2023-02-17T01:38:05.587Z,96.84
2023-02-17T01:38:37.872Z,96.89
2023-02-17T01:39:13.176Z,97.10
2023-02-17T01:39:44.849Z,97.09
2023-02-17T01:40:18.351Z,97.10
2023-02-17T01:40:50.128Z,96.96
2023-02-17T01:41:27.177Z,97.05
2023-02-17T01:41:58.985Z,97.13
2023-02-17T01:42:30.629Z,97.10
2023-02-17T01:43:02.318Z,97.27
2023-02-17T01:43:34.414Z,96.94
2023-02-17T01:44:22.030Z,96.83
2023-02-17T01:45:33.468Z,97.18
2023-02-17T01:46:07.420Z,97.42
2023-02-17T01:46:41.553Z,97.44
2023-02-17T01:47:13.251Z,97.57
2023-02-17T01:47:56.221Z,97.52
2023-02-17T01:48:36.790Z,97.52
2023-02-17T01:49:19.925Z,97.35
2023-02-17T01:49:51.587Z,97.54
2023-02-17T01:50:28.406Z,97.49
2023-02-17T01:51:05.287Z,97.41
2023-02-17T01:51:38.534Z,97.52
2023-02-17T01:52:23.580Z,97.38
2023-02-17T01:52:56.599Z,97.31
2023-02-17T01:53:35.917Z,97.35
2023-02-17T01:54:17.466Z,97.53
2023-02-17T01:54:57.847Z,97.42
2023-02-17T01:55:30.101Z,97.32
2023-02-17T01:56:02.533Z,97.30
2023-02-17T01:56:38.688Z,97.16
2023-02-17T01:57:13.103Z,97.20
2023-02-17T01:57:46.274Z,97.15
2023-02-17T01:58:20.977Z,97.30
2023-02-17T01:58:59.425Z,97.45
2023-02-17T01:59:31.578Z,97.30
2023-02-17T02:00:05.760Z,97.25
2023-02-17T02:00:38.074Z,97.26
2023-02-17T02:01:09.953Z,97.00
2023-02-17T02:01:41.802Z,96.94
2023-02-17T02:02:14.407Z,97.04
2023-02-17T02:02:49.042Z,97.11
2023-02-17T02:03:21.384Z,96.74
2023-02-17T02:03:53.521Z,96.62
2023-02-17T02:04:29.709Z,96.64
2023-02-17T02:05:01.555Z,96.57
2023-02-17T02:05:33.435Z,96.47
2023-02-17T02:06:10.803Z,96.30
2023-02-17T02:06:44.597Z,96.32
2023-02-17T02:07:33.583Z,96.51
2023-02-17T02:08:05.852Z,96.22
2023-02-17T02:08:53.232Z,96.06
2023-02-17T02:09:36.943Z,96.24
2023-02-17T02:10:11.967Z,96.35
2023-02-17T02:10:43.576Z,96.29
2023-02-17T02:11:15.311Z,96.16
2023-02-17T02:11:51.014Z,96.00
2023-02-17T02:12:27.658Z,96.16
2023-02-17T02:12:59.415Z,96.21
2023-02-17T02:13:31.191Z,96.22
2023-02-17T02:14:04.806Z,96.22
2023-02-17T02:14:36.459Z,96.28
2023-02-17T02:15:32.173Z,96.17
2023-02-17T02:16:28.010Z,96.49
2023-02-17T02:17:02.475Z,96.06
2023-02-17T02:18:04.062Z,95.81
2023-02-17T02:18:38.430Z,95.96
2023-02-17T02:19:54.690Z,96.40
2023-02-17T02:20:40.416Z,96.22
2023-02-17T02:21:36.795Z,96.13
2023-02-17T02:22:39.148Z,96.14
2023-02-17T02:23:22.485Z,96.26
2023-02-17T02:24:35.777Z,96.56
2023-02-17T02:25:54.527Z,96.87
2023-02-17T02:26:31.780Z,96.78
2023-02-17T02:27:15.106Z,96.84
2023-02-17T02:28:18.981Z,96.72
2023-02-17T02:28:53.688Z,96.58
2023-02-17T02:29:34.296Z,96.53
2023-02-17T02:30:39.719Z,96.63
2023-02-17T02:31:24.292Z,96.82
2023-02-17T02:32:15.033Z,96.61
2023-02-17T02:33:03.564Z,96.60
2023-02-17T02:33:48.099Z,96.74
2023-02-17T02:34:30.267Z,96.69
2023-02-17T02:35:25.016Z,96.56
2023-02-17T02:35:59.342Z,96.30
2023-02-17T02:36:52.387Z,96.29
2023-02-17T02:37:35.285Z,96.27
2023-02-17T02:38:14.881Z,96.44
2023-02-17T02:38:57.807Z,96.28
2023-02-17T02:39:35.300Z,96.55
2023-02-17T02:40:09.135Z,96.77
2023-02-17T02:40:49.277Z,96.73
2023-02-17T02:41:36.286Z,96.77
2023-02-17T02:42:14.896Z,96.86
2023-02-17T02:42:47.217Z,96.89
2023-02-17T02:43:19.043Z,96.76
2023-02-17T02:43:52.003Z,96.62
2023-02-17T02:44:23.934Z,96.79
2023-02-17T02:44:56.141Z,96.69
2023-02-17T02:45:28.010Z,96.72
2023-02-17T02:45:59.874Z,96.60
2023-02-17T02:46:31.539Z,96.69
2023-02-17T02:47:28.088Z,96.88
2023-02-17T02:47:59.833Z,96.82
2023-02-17T02:48:31.673Z,96.95
2023-02-17T02:49:04.797Z,96.93
2023-02-17T02:49:36.796Z,96.86
2023-02-17T02:50:11.370Z,96.75
2023-02-17T02:51:06.862Z,96.77
2023-02-17T02:52:02.694Z,96.69
2023-02-17T02:53:06.990Z,96.63
2023-02-17T02:53:56.766Z,96.53
2023-02-17T02:54:46.523Z,96.62
2023-02-17T02:55:27.223Z,96.66
2023-02-17T02:56:33.023Z,96.67
2023-02-17T02:57:15.204Z,96.79
2023-02-17T02:57:46.797Z,96.88
2023-02-17T02:58:25.832Z,96.75
2023-02-17T02:59:24.044Z,96.88
2023-02-17T03:00:24.883Z,96.92
2023-02-17T03:01:22.281Z,97.01
2023-02-17T03:02:00.063Z,96.78
2023-02-17T03:02:52.692Z,96.72
2023-02-17T03:03:35.253Z,96.83
2023-02-17T03:04:26.612Z,97.05
2023-02-17T03:05:08.944Z,96.78
2023-02-17T03:06:05.840Z,96.79
2023-02-17T03:06:43.745Z,96.79
2023-02-17T03:07:24.368Z,96.81
2023-02-17T03:07:55.902Z,96.67
2023-02-17T03:08:43.967Z,96.54
2023-02-17T03:09:22.274Z,96.62
2023-02-17T03:09:56.852Z,96.51
2023-02-17T03:10:28.517Z,96.66
2023-02-17T03:11:01.140Z,96.72
2023-02-17T03:11:33.173Z,96.72
2023-02-17T03:12:05.321Z,96.75
2023-02-17T03:12:38.676Z,96.54
2023-02-17T03:13:10.442Z,96.43
2023-02-17T03:13:42.677Z,96.74
2023-02-17T03:14:19.080Z,96.84
2023-02-17T03:14:56.434Z,96.85
2023-02-17T03:15:31.133Z,96.87
2023-02-17T03:16:02.764Z,96.83
2023-02-17T03:16:36.964Z,96.98
2023-02-17T03:17:08.930Z,96.92
2023-02-17T03:17:40.593Z,97.01
2023-02-17T03:18:12.589Z,97.01
2023-02-17T03:18:44.205Z,97.08
2023-02-17T03:19:18.611Z,97.16
2023-02-17T03:19:50.412Z,97.12
2023-02-17T03:20:22.279Z,97.20
2023-02-17T03:21:01.423Z,97.14
2023-02-17T03:21:50.908Z,97.20
2023-02-17T03:22:26.006Z,97.11
2023-02-17T03:22:57.922Z,97.03
2023-02-17T03:23:29.612Z,96.87
2023-02-17T03:24:01.261Z,96.94
2023-02-17T03:24:34.716Z,97.01
2023-02-17T03:25:07.931Z,97.05
2023-02-17T03:25:39.523Z,97.01
2023-02-17T03:26:11.165Z,96.88
2023-02-17T03:26:42.754Z,96.94
2023-02-17T03:27:14.571Z,96.70
2023-02-17T03:27:46.210Z,96.56
2023-02-17T03:28:18.677Z,96.56
2023-02-17T03:28:50.246Z,96.63
2023-02-17T03:29:21.931Z,96.66
2023-02-17T03:29:54.134Z,96.82
2023-02-17T03:30:25.902Z,96.57
2023-02-17T03:30:57.578Z,96.73
2023-02-17T03:31:30.914Z,96.53
2023-02-17T03:32:02.873Z,96.49
2023-02-17T03:32:34.724Z,96.52
2023-02-17T03:33:06.330Z,96.73
2023-02-17T03:33:38.030Z,96.89
2023-02-17T03:34:09.869Z,96.24
2023-02-17T03:34:41.457Z,96.44
2023-02-17T03:35:13.388Z,96.44
2023-02-17T03:35:45.539Z,96.45
2023-02-17T03:36:17.669Z,96.29
2023-02-17T03:36:49.303Z,96.53
2023-02-17T03:37:20.954Z,96.50
2023-02-17T03:37:52.597Z,96.62
2023-02-17T03:38:24.263Z,96.72
2023-02-17T03:38:56.699Z,96.89
2023-02-17T03:39:28.389Z,96.85
2023-02-17T03:40:00.536Z,96.84
2023-02-17T03:40:32.310Z,96.81
2023-02-17T03:41:04.113Z,96.47
2023-02-17T03:41:35.859Z,96.62
2023-02-17T03:42:07.924Z,96.73
2023-02-17T03:42:39.654Z,96.66
2023-02-17T03:43:11.419Z,96.61
2023-02-17T03:43:43.028Z,96.94
2023-02-17T03:44:14.786Z,96.83
2023-02-17T03:44:46.373Z,96.92
2023-02-17T03:45:18.069Z,97.00
2023-02-17T03:45:49.854Z,97.00
2023-02-17T03:46:21.507Z,96.94
2023-02-17T03:46:53.456Z,96.98
2023-02-17T03:47:25.195Z,96.96
2023-02-17T03:47:56.862Z,97.05
2023-02-17T03:48:28.568Z,97.16
2023-02-17T03:49:00.131Z,97.07
2023-02-17T03:49:31.936Z,96.97
2023-02-17T03:50:03.899Z,97.05
2023-02-17T03:50:35.637Z,96.93
2023-02-17T03:51:25.910Z,96.75
2023-02-17T03:51:58.389Z,96.99
2023-02-17T03:52:30.071Z,97.02
2023-02-17T03:53:02.072Z,96.75
2023-02-17T03:53:33.662Z,96.92
2023-02-17T03:54:06.255Z,96.64
2023-02-17T03:54:38.160Z,96.66
2023-02-17T03:55:09.729Z,96.87
2023-02-17T03:55:41.337Z,96.75
2023-02-17T03:56:14.818Z,96.71
2023-02-17T03:56:46.589Z,96.55
2023-02-17T03:57:18.217Z,96.61
2023-02-17T03:57:49.905Z,96.37
2023-02-17T03:58:21.490Z,96.54
2023-02-17T03:58:53.230Z,96.82
2023-02-17T03:59:25.265Z,96.57
2023-02-17T03:59:57.006Z,96.54
2023-02-17T04:00:29.065Z,96.45
2023-02-17T04:01:00.889Z,96.40
2023-02-17T04:01:32.773Z,96.32
2023-02-17T04:02:04.435Z,96.18
2023-02-17T04:02:36.392Z,96.14
2023-02-17T04:03:08.050Z,96.22
2023-02-17T04:03:41.077Z,96.14
2023-02-17T04:04:12.819Z,96.05
2023-02-17T04:04:44.488Z,96.16
2023-02-17T04:05:16.124Z,96.01
2023-02-17T04:05:47.721Z,95.98
2023-02-17T04:06:19.426Z,96.20
2023-02-17T04:06:51.036Z,96.15
2023-02-17T04:07:22.815Z,96.20
2023-02-17T04:07:54.595Z,96.26
2023-02-17T04:08:26.531Z,96.17
2023-02-17T04:08:58.281Z,96.22
2023-02-17T04:09:30.054Z,96.19
2023-02-17T04:10:03.994Z,95.80
2023-02-17T04:10:36.800Z,96.03
2023-02-17T04:11:09.670Z,95.95
2023-02-17T04:11:41.486Z,95.71
2023-02-17T04:12:13.244Z,95.75
2023-02-17T04:12:45.033Z,95.93
2023-02-17T04:13:16.757Z,95.97
2023-02-17T04:13:48.590Z,96.08
2023-02-17T04:14:20.338Z,96.12
2023-02-17T04:14:52.042Z,96.11
2023-02-17T04:15:23.694Z,96.06
2023-02-17T04:15:55.936Z,96.17
2023-02-17T04:16:27.704Z,96.28
2023-02-17T04:16:59.319Z,95.84
2023-02-17T04:17:30.986Z,95.68
2023-02-17T04:18:02.742Z,95.73
2023-02-17T04:18:34.890Z,95.58
2023-02-17T04:19:07.636Z,95.95
2023-02-17T04:19:39.330Z,96.07
2023-02-17T04:20:11.544Z,95.81
2023-02-17T04:20:44.057Z,95.78
2023-02-17T04:21:15.712Z,95.63
2023-02-17T04:21:47.339Z,95.63
2023-02-17T04:22:19.069Z,95.68
2023-02-17T04:22:50.809Z,95.84
2023-02-17T04:23:22.494Z,95.86
2023-02-17T04:23:55.221Z,95.84
2023-02-17T04:24:27.026Z,95.91
2023-02-17T04:24:58.818Z,95.66
2023-02-17T04:25:30.453Z,95.50
2023-02-17T04:26:03.922Z,95.49
2023-02-17T04:26:35.764Z,95.70
2023-02-17T04:27:07.450Z,95.68
2023-02-17T04:27:39.161Z,95.51
2023-02-17T04:28:11.929Z,95.62
2023-02-17T04:28:44.032Z,95.51
2023-02-17T04:29:15.794Z,95.41
2023-02-17T04:29:47.422Z,95.51
2023-02-17T04:30:19.049Z,95.80
2023-02-17T04:30:51.553Z,96.17
2023-02-17T04:31:24.276Z,96.56
2023-02-17T04:31:56.085Z,96.43
2023-02-17T04:32:27.797Z,96.36
2023-02-17T04:32:59.846Z,96.37
2023-02-17T04:33:31.603Z,96.59
2023-02-17T04:34:03.173Z,96.22
2023-02-17T04:34:34.988Z,96.02
2023-02-17T04:35:07.114Z,95.84
2023-02-17T04:35:39.166Z,95.87
2023-02-17T04:36:11.553Z,95.97
2023-02-17T04:36:44.349Z,96.07
2023-02-17T04:37:16.129Z,96.33
2023-02-17T04:37:47.950Z,96.58
2023-02-17T04:38:19.557Z,96.20
2023-02-17T04:38:51.142Z,96.03
2023-02-17T04:39:22.720Z,95.73
2023-02-17T04:39:54.293Z,95.71
2023-02-17T04:40:26.137Z,95.43
2023-02-17T04:40:58.850Z,95.24
2023-02-17T04:41:30.559Z,95.54
2023-02-17T04:42:02.244Z,95.69
2023-02-17T04:42:33.985Z,95.50
2023-02-17T04:43:06.109Z,95.32
2023-02-17T04:43:37.808Z,95.42
2023-02-17T04:44:09.472Z,95.51
2023-02-17T04:44:41.141Z,95.66
2023-02-17T04:45:13.190Z,95.76
2023-02-17T04:45:44.912Z,95.78
2023-02-17T04:46:16.629Z,95.74
2023-02-17T04:46:48.211Z,95.96
2023-02-17T04:47:19.916Z,96.16
2023-02-17T04:47:51.588Z,96.04
2023-02-17T04:48:23.629Z,95.81
2023-02-17T04:48:55.336Z,96.11
2023-02-17T04:49:27.174Z,96.06
2023-02-17T04:49:58.778Z,96.21
2023-02-17T04:50:30.426Z,96.00
2023-02-17T04:51:02.204Z,96.08
2023-02-17T04:51:33.910Z,95.89
2023-02-17T04:52:05.739Z,96.11
2023-02-17T04:52:37.374Z,95.94
2023-02-17T04:53:08.954Z,95.86
2023-02-17T04:53:40.526Z,95.83
2023-02-17T04:54:12.107Z,95.84
2023-02-17T04:54:43.675Z,95.64
2023-02-17T04:55:15.358Z,95.80
2023-02-17T04:55:51.816Z,95.64
2023-02-17T04:56:23.617Z,95.73
2023-02-17T04:56:55.434Z,95.59
2023-02-17T04:57:28.315Z,95.59
2023-02-17T04:57:59.989Z,95.61
2023-02-17T04:58:31.642Z,95.69
2023-02-17T04:59:03.235Z,95.76
2023-02-17T04:59:34.843Z,96.08
2023-02-17T05:00:07.689Z,96.59
2023-02-17T05:00:39.295Z,96.62
2023-02-17T05:01:11.155Z,96.41
2023-02-17T05:01:42.847Z,96.35
2023-02-17T05:02:14.647Z,96.12
2023-02-17T05:02:46.242Z,96.20
2023-02-17T05:03:18.913Z,95.94
2023-02-17T05:03:50.698Z,95.97
2023-02-17T05:04:22.379Z,96.04
2023-02-17T05:04:54.591Z,95.94
2023-02-17T05:05:26.669Z,96.10
2023-02-17T05:05:58.359Z,96.10
2023-02-17T05:06:30.112Z,96.22
2023-02-17T05:07:01.766Z,95.83
2023-02-17T05:07:33.536Z,95.63
2023-02-17T05:08:05.328Z,95.47
2023-02-17T05:08:37.079Z,95.62
2023-02-17T05:09:08.730Z,95.77
2023-02-17T05:09:41.134Z,95.85
2023-02-17T05:10:15.431Z,95.79
2023-02-17T05:10:47.040Z,95.65
2023-02-17T05:11:18.695Z,95.64
2023-02-17T05:11:50.350Z,95.67
2023-02-17T05:12:22.098Z,95.82
2023-02-17T05:12:53.736Z,95.75
2023-02-17T05:13:25.343Z,95.57
2023-02-17T05:13:57.348Z,95.39
2023-02-17T05:14:29.762Z,95.22
2023-02-17T05:15:01.493Z,95.16
2023-02-17T05:15:34.889Z,94.80
2023-02-17T05:16:07.233Z,94.82
2023-02-17T05:16:39.141Z,94.95
2023-02-17T05:17:10.856Z,95.01
2023-02-17T05:17:42.455Z,95.15
2023-02-17T05:18:14.516Z,95.42
2023-02-17T05:18:46.226Z,95.56
2023-02-17T05:19:17.941Z,95.23
2023-02-17T05:19:49.710Z,95.19
2023-02-17T05:20:21.563Z,95.38
2023-02-17T05:20:53.263Z,95.36
2023-02-17T05:21:24.892Z,94.93
2023-02-17T05:21:56.646Z,94.74
2023-02-17T05:22:28.742Z,94.82
2023-02-17T05:23:00.581Z,94.79
2023-02-17T05:23:32.215Z,94.71
2023-02-17T05:24:04.133Z,94.58
2023-02-17T05:24:38.534Z,94.65
2023-02-17T05:25:10.618Z,94.63
2023-02-17T05:25:42.268Z,94.69
2023-02-17T05:26:13.900Z,94.84
2023-02-17T05:26:45.844Z,94.73
2023-02-17T05:27:17.615Z,94.80
2023-02-17T05:27:49.260Z,94.75
2023-02-17T05:28:20.950Z,94.68
2023-02-17T05:28:52.527Z,94.72
2023-02-17T05:29:24.308Z,94.72
2023-02-17T05:29:56.073Z,95.01
2023-02-17T05:30:28.123Z,94.78
2023-02-17T05:31:00.961Z,94.88
2023-02-17T05:31:32.715Z,95.09
2023-02-17T05:32:04.534Z,94.88
2023-02-17T05:32:36.204Z,94.94
2023-02-17T05:33:07.901Z,95.03
2023-02-17T05:33:39.809Z,94.85
2023-02-17T05:34:12.311Z,94.72
2023-02-17T05:34:44.251Z,94.97
2023-02-17T05:35:16.040Z,94.95
2023-02-17T05:35:47.693Z,94.56
2023-02-17T05:36:19.320Z,94.54
2023-02-17T05:36:50.993Z,94.61
2023-02-17T05:37:22.635Z,94.69
2023-02-17T05:37:54.232Z,94.89
2023-02-17T05:38:26.089Z,95.03
2023-02-17T05:38:57.714Z,94.92
2023-02-17T05:39:29.517Z,94.85
2023-02-17T05:40:01.112Z,94.82
2023-02-17T05:40:32.839Z,94.89
2023-02-17T05:41:04.852Z,94.94
2023-02-17T05:41:36.486Z,94.94
2023-02-17T05:42:08.086Z,94.63
2023-02-17T05:42:39.800Z,94.65
2023-02-17T05:43:11.551Z,94.52
2023-02-17T05:43:43.292Z,94.57
2023-02-17T05:44:15.036Z,94.67
2023-02-17T05:44:47.021Z,94.81
2023-02-17T05:45:18.800Z,94.66
2023-02-17T05:45:50.490Z,94.73
2023-02-17T05:46:23.183Z,94.91
2023-02-17T05:46:54.963Z,94.65
2023-02-17T05:47:27.679Z,94.56
2023-02-17T05:47:59.374Z,94.55
2023-02-17T05:48:31.157Z,94.38
2023-02-17T05:49:02.768Z,94.35
2023-02-17T05:49:34.418Z,94.57
2023-02-17T05:50:06.683Z,94.57
2023-02-17T05:50:38.291Z,94.79
2023-02-17T05:51:09.953Z,94.91
2023-02-17T05:51:41.533Z,94.76
2023-02-17T05:52:13.356Z,94.67
2023-02-17T05:52:44.974Z,94.99
2023-02-17T05:53:16.875Z,94.80
2023-02-17T05:53:48.610Z,95.22
2023-02-17T05:54:20.211Z,95.09
2023-02-17T05:54:51.791Z,94.81
2023-02-17T05:55:23.443Z,94.56
2023-02-17T05:55:55.222Z,94.63
2023-02-17T05:56:26.873Z,94.65
2023-02-17T05:56:58.599Z,94.46
2023-02-17T05:57:30.809Z,94.56
2023-02-17T05:58:02.863Z,94.54
2023-02-17T05:58:34.529Z,94.44
2023-02-17T05:59:06.335Z,94.34
2023-02-17T05:59:37.997Z,94.18
2023-02-17T06:00:10.344Z,94.28
2023-02-17T06:00:42.073Z,93.94
2023-02-17T06:01:14.111Z,94.82
2023-02-17T06:01:45.701Z,94.86
2023-02-17T06:02:17.679Z,94.60
2023-02-17T06:02:49.289Z,95.08
2023-02-17T06:03:20.940Z,94.77
2023-02-17T06:03:52.710Z,94.50
2023-02-17T06:04:24.441Z,94.64
2023-02-17T06:04:56.226Z,94.46
2023-02-17T06:05:28.019Z,94.53
2023-02-17T06:05:59.629Z,94.58
2023-02-17T06:06:31.363Z,94.50
2023-02-17T06:07:03.163Z,94.31
2023-02-17T06:07:34.938Z,94.03
2023-02-17T06:08:06.940Z,94.05
2023-02-17T06:08:39.746Z,94.20
2023-02-17T06:09:11.375Z,94.22
2023-02-17T06:09:42.984Z,94.75
2023-02-17T06:10:14.769Z,94.96
2023-02-17T06:10:46.352Z,94.94
2023-02-17T06:11:17.950Z,94.96
2023-02-17T06:11:50.124Z,94.70
2023-02-17T06:12:21.695Z,94.50
2023-02-17T06:12:53.355Z,94.29
2023-02-17T06:13:25.219Z,94.32
2023-02-17T06:13:56.863Z,93.79
2023-02-17T06:14:28.599Z,93.46
2023-02-17T06:15:00.397Z,93.24
2023-02-17T06:15:32.263Z,93.32
2023-02-17T06:16:04.608Z,93.65
2023-02-17T06:16:36.422Z,93.90
2023-02-17T06:17:08.096Z,94.39
2023-02-17T06:17:39.689Z,94.65
2023-02-17T06:18:11.257Z,94.61
2023-02-17T06:18:43.021Z,94.90
2023-02-17T06:19:14.626Z,94.94
2023-02-17T06:19:46.212Z,94.99
2023-02-17T06:20:18.078Z,95.28
2023-02-17T06:20:50.194Z,95.61
2023-02-17T06:21:21.770Z,96.00
2023-02-17T06:21:53.425Z,95.77
2023-02-17T06:22:25.058Z,95.74
2023-02-17T06:22:56.646Z,95.67
2023-02-17T06:23:28.472Z,95.22
2023-02-17T06:24:00.326Z,95.34
2023-02-17T06:24:31.934Z,95.32
2023-02-17T06:25:04.102Z,95.22
2023-02-17T06:25:35.876Z,95.47
2023-02-17T06:26:07.939Z,95.84
2023-02-17T06:26:39.934Z,95.83
2023-02-17T06:27:11.695Z,95.53
2023-02-17T06:27:44.238Z,95.22
2023-02-17T06:28:15.847Z,95.02
2023-02-17T06:28:47.515Z,95.31
2023-02-17T06:29:19.160Z,95.32
2023-02-17T06:29:51.061Z,95.36
2023-02-17T06:30:23.325Z,95.23
2023-02-17T06:30:55.125Z,95.41
2023-02-17T06:31:27.050Z,95.79
2023-02-17T06:31:58.815Z,96.06
2023-02-17T06:32:30.660Z,95.93
2023-02-17T06:33:02.454Z,95.90
2023-02-17T06:33:34.103Z,95.81
2023-02-17T06:34:06.741Z,95.91
2023-02-17T06:34:38.543Z,95.97
2023-02-17T06:35:10.174Z,95.88
2023-02-17T06:35:41.916Z,96.08
2023-02-17T06:36:13.555Z,96.21
2023-02-17T06:36:46.354Z,96.50
2023-02-17T06:37:17.978Z,96.22
2023-02-17T06:37:49.688Z,96.47
2023-02-17T06:38:21.469Z,96.63
2023-02-17T06:38:53.127Z,96.57
2023-02-17T06:39:24.792Z,96.84
2023-02-17T06:39:56.563Z,96.95
2023-02-17T06:40:28.890Z,96.38
2023-02-17T06:41:00.572Z,96.19
2023-02-17T06:41:32.271Z,96.33
2023-02-17T06:42:04.242Z,96.16
2023-02-17T06:42:35.859Z,96.13
2023-02-17T06:43:08.071Z,96.20
2023-02-17T06:43:39.730Z,96.42
2023-02-17T06:44:11.365Z,96.46
2023-02-17T06:44:42.966Z,96.41
2023-02-17T06:45:15.604Z,95.96
2023-02-17T06:45:47.257Z,95.94
2023-02-17T06:46:18.928Z,95.86
2023-02-17T06:46:50.608Z,95.68
2023-02-17T06:47:22.237Z,95.66
2023-02-17T06:47:53.868Z,95.92
2023-02-17T06:48:25.642Z,95.58
2023-02-17T06:48:57.619Z,95.31
2023-02-17T06:49:29.234Z,95.48
2023-02-17T06:50:01.047Z,95.30
2023-02-17T06:50:32.857Z,95.11
2023-02-17T06:51:04.731Z,94.89
2023-02-17T06:51:36.365Z,94.40
2023-02-17T06:52:08.163Z,94.16
2023-02-17T06:52:39.832Z,94.24
2023-02-17T06:53:11.829Z,93.89
2023-02-17T06:53:43.428Z,94.20
2023-02-17T06:54:16.018Z,94.11
2023-02-17T06:54:47.612Z,93.72
2023-02-17T06:55:19.465Z,93.47
2023-02-17T06:55:51.058Z,93.38
2023-02-17T06:56:22.876Z,93.08
2023-02-17T06:56:54.570Z,92.77
2023-02-17T06:57:26.221Z,93.00
2023-02-17T06:57:57.959Z,93.12
2023-02-17T06:58:29.579Z,93.46
2023-02-17T06:59:02.092Z,93.65
2023-02-17T06:59:33.843Z,93.82
2023-02-17T07:00:06.320Z,93.64
2023-02-17T07:00:38.041Z,93.83
2023-02-17T07:01:28.505Z,93.87
2023-02-17T07:02:02.305Z,93.55
2023-02-17T07:02:34.513Z,93.69
2023-02-17T07:03:06.338Z,93.49
2023-02-17T07:03:38.026Z,93.20
2023-02-17T07:04:09.610Z,93.17
2023-02-17T07:04:42.181Z,93.17
2023-02-17T07:05:13.841Z,93.51
2023-02-17T07:05:45.464Z,93.92
2023-02-17T07:06:17.100Z,93.80
2023-02-17T07:06:48.921Z,93.45
2023-02-17T07:07:20.958Z,93.70
2023-02-17T07:07:53.670Z,93.80
2023-02-17T07:08:25.439Z,93.58
2023-02-17T07:08:57.059Z,93.74
2023-02-17T07:09:28.666Z,93.78
2023-02-17T07:10:00.361Z,93.77
2023-02-17T07:10:32.683Z,93.65
2023-02-17T07:11:12.571Z,93.53
2023-02-17T07:11:45.324Z,93.73
2023-02-17T07:12:17.074Z,93.60
2023-02-17T07:12:48.651Z,93.66
2023-02-17T07:13:20.270Z,93.60
2023-02-17T07:13:51.850Z,93.53
2023-02-17T07:14:25.099Z,93.61